Time;durP1;ratioP1;P1;durP2;ratioP2;P2;SDS_P1;SDS_P2;PMS_P1;PMS_P2;Temp;Humidity;BMP_temperature;BMP_pressure;BME280_temperature;BME280_humidity;BME280_pressure;Samples;Min_cycle;Max_cycle;Signal;HPM_P1;HPM_P2
2022/12/13 00:01:49;;;;;;;3.75;1.75;;;;;;;2.82;83.74;100287.91;4964999;28;20046;-85
2022/12/13 00:04:17;;;;;;;3.40;1.67;;;;;;;2.80;83.50;100315.53;4961262;28;20450;-87
2022/12/13 00:06:43;;;;;;;3.78;1.80;;;;;;;2.87;84.33;100332.69;4938933;28;20043;-87
2022/12/13 00:09:12;;;;;;;3.85;1.95;;;;;;;2.88;83.94;100326.41;4920276;28;20555;-87
2022/12/13 00:11:40;;;;;;;3.08;1.63;;;;;;;2.87;83.16;100338.84;4956791;28;20530;-87
2022/12/13 00:14:05;;;;;;;3.77;1.53;;;;;;;2.78;83.74;100323.63;4925006;28;20035;-86
2022/12/13 00:16:33;;;;;;;2.50;1.73;;;;;;;2.87;82.94;100330.88;4967852;28;20077;-86
2022/12/13 00:19:01;;;;;;;2.78;1.60;;;;;;;2.88;82.99;100339.66;4972084;28;20046;-86
2022/12/13 00:21:29;;;;;;;3.00;1.60;;;;;;;2.84;83.60;100348.88;4957493;28;20514;-86
2022/12/13 00:24:02;;;;;;;3.08;1.80;;;;;;;2.91;84.02;100355.38;4920318;29;20059;-87
2022/12/13 00:26:31;;;;;;;3.95;1.60;;;;;;;2.96;84.33;100345.25;4946726;28;20038;-86
2022/12/13 00:29:03;;;;;;;3.28;1.75;;;;;;;2.88;82.97;100363.56;4958030;28;20061;-86
2022/12/13 00:31:30;;;;;;;2.65;1.52;;;;;;;2.73;83.70;100331.94;4958210;28;20144;-85
2022/12/13 00:33:58;;;;;;;2.88;1.83;;;;;;;2.88;84.26;100350.28;4939537;28;20430;-86
2022/12/13 00:36:26;;;;;;;2.80;1.55;;;;;;;2.83;83.53;100350.66;4958142;28;20101;-86
2022/12/13 00:39:00;;;;;;;2.78;1.58;;;;;;;2.72;84.13;100338.22;4954984;28;20139;-86
2022/12/13 00:41:57;;;;;;;2.90;1.88;;;;;;;2.66;84.79;100330.72;4982514;28;20043;-85
2022/12/13 00:44:23;;;;;;;3.45;2.00;;;;;;;2.76;85.30;100344.13;4965234;28;20038;-87
2022/12/13 00:46:55;;;;;;;3.37;2.00;;;;;;;2.72;85.51;100335.56;4946448;28;20561;-85
2022/12/13 00:49:22;;;;;;;3.25;2.00;;;;;;;2.86;85.22;100337.16;4964090;28;20050;-87
2022/12/13 00:51:48;;;;;;;3.22;1.95;;;;;;;2.69;84.84;100308.41;4952459;28;20121;-85
2022/12/13 00:54:13;;;;;;;3.60;2.10;;;;;;;2.74;84.96;100306.25;4962604;28;20117;-85
2022/12/13 00:56:40;;;;;;;4.55;2.20;;;;;;;2.67;84.96;100283.78;4965192;28;20054;-85
2022/12/13 00:59:06;;;;;;;3.20;2.08;;;;;;;2.78;85.35;100302.38;4994866;28;20062;-84
2022/12/13 01:01:35;;;;;;;3.77;2.20;;;;;;;2.74;85.45;100288.50;4982963;28;20065;-83
2022/12/13 01:04:03;;;;;;;3.83;2.38;;;;;;;2.78;85.59;100285.59;4993602;28;20061;-85
2022/12/13 01:06:38;;;;;;;3.47;2.28;;;;;;;2.79;85.45;100296.13;4981391;28;20046;-86
2022/12/13 01:09:04;;;;;;;4.78;2.50;;;;;;;2.82;85.34;100303.00;4971440;28;20118;-87
2022/12/13 01:11:31;;;;;;;3.75;2.28;;;;;;;2.67;85.02;100282.00;4959206;28;20058;-86
2022/12/13 01:13:56;;;;;;;4.10;2.00;;;;;;;2.75;85.24;100311.44;4975630;28;20049;-85
2022/12/13 01:16:23;;;;;;;3.57;2.20;;;;;;;2.64;84.58;100300.78;4979041;28;20050;-85
2022/12/13 01:18:48;;;;;;;4.88;2.13;;;;;;;2.61;85.35;100309.00;5000979;28;20137;-86
2022/12/13 01:21:17;;;;;;;4.20;2.10;;;;;;;2.63;85.78;100315.03;4990920;28;20616;-85
2022/12/13 01:23:44;;;;;;;4.28;2.13;;;;;;;2.63;85.43;100296.47;4944187;28;20781;-85
2022/12/13 01:26:14;;;;;;;3.08;1.77;;;;;;;2.56;85.25;100291.75;4964773;28;20071;-84
2022/12/13 01:28:42;;;;;;;3.47;1.95;;;;;;;2.40;85.00;100270.84;4967297;28;20085;-86
2022/12/13 01:31:12;;;;;;;3.75;1.77;;;;;;;2.66;84.82;100287.41;4973811;28;20054;-86
2022/12/13 01:33:39;;;;;;;3.20;2.00;;;;;;;2.65;85.31;100299.84;4949823;28;20042;-86
2022/12/13 01:36:07;;;;;;;4.75;2.00;;;;;;;2.56;84.98;100271.38;4970295;28;20097;-85
2022/12/13 01:38:33;;;;;;;2.88;1.70;;;;;;;2.53;85.13;100287.53;4987253;28;20042;-85
2022/12/13 01:40:59;;;;;;;3.40;2.10;;;;;;;2.63;85.34;100301.78;4955119;28;20169;-85
2022/12/13 01:43:35;;;;;;;3.60;2.03;;;;;;;2.57;85.51;100296.91;4994956;28;20072;-85
2022/12/13 01:46:00;;;;;;;3.33;2.20;;;;;;;2.65;85.21;100283.91;4970461;28;20045;-85
2022/12/13 01:48:42;;;;;;;4.18;2.15;;;;;;;2.63;85.78;100261.97;4959689;28;20054;-84
2022/12/13 01:51:08;;;;;;;3.60;2.08;;;;;;;2.54;85.84;100265.31;4963023;28;20073;-85
2022/12/13 01:53:35;;;;;;;;;;;;;;;2.74;85.98;100296.47;4974190;28;20169;-85
2022/12/13 01:56:04;;;;;;;3.15;1.85;;;;;;;2.47;85.70;100278.22;4972626;28;19941;-85
2022/12/13 01:58:30;;;;;;;2.90;1.85;;;;;;;2.69;85.69;100285.38;4984125;28;20061;-85
2022/12/13 02:00:59;;;;;;;4.32;2.50;;;;;;;2.73;85.70;100302.72;4958417;28;20552;-85
2022/12/13 02:03:25;;;;;;;3.58;2.13;;;;;;;2.57;85.19;100273.03;4958861;28;20197;-85
2022/12/13 02:06:11;;;;;;;3.60;2.20;;;;;;;2.77;85.15;100306.00;4976270;28;20037;-86
2022/12/13 02:08:36;;;;;;;3.83;2.17;;;;;;;2.79;84.63;100308.56;4962874;28;20042;-85
2022/12/13 02:11:04;;;;;;;3.15;2.10;;;;;;;2.71;85.24;100287.88;4948028;28;20430;-88
2022/12/13 02:13:31;;;;;;;4.57;2.50;;;;;;;2.77;84.42;100291.91;4985394;28;20046;-87
2022/12/13 02:16:17;;;;;;;3.50;2.17;;;;;;;2.78;84.62;100312.16;4984666;28;20050;-86
2022/12/13 02:19:00;;;;;;;4.25;2.20;;;;;;;2.72;84.37;100327.59;4991573;28;20050;-86
2022/12/13 02:21:40;;;;;;;4.00;2.30;;;;;;;2.74;84.93;100341.59;4959250;28;20043;-86
2022/12/13 02:24:45;;;;;;;3.35;1.98;;;;;;;2.59;85.03;100302.97;5003023;28;20466;-87
2022/12/13 02:27:38;;;;;;;3.03;1.70;;;;;;;2.71;85.00;100325.91;4963695;28;20053;-85
2022/12/13 02:30:23;;;;;;;3.15;1.77;;;;;;;2.78;85.05;100333.41;4978474;28;20034;-87
2022/12/13 02:32:55;;;;;;;3.73;2.20;;;;;;;2.70;84.92;100321.56;4999857;28;20098;-86
2022/12/13 02:35:34;;;;;;;4.22;2.15;;;;;;;2.82;85.30;100345.47;4985356;28;20369;-87
2022/12/13 02:38:24;;;;;;;3.85;2.30;;;;;;;2.92;84.33;100344.63;5013987;28;20053;-86
2022/12/13 02:41:05;;;;;;;3.92;2.20;;;;;;;2.86;84.79;100363.72;5014913;28;20034;-87
2022/12/13 02:43:37;;;;;;;3.55;2.22;;;;;;;2.80;84.73;100368.66;5022227;28;20038;-84
2022/12/13 02:46:07;;;;;;;3.47;2.20;;;;;;;2.78;84.80;100381.19;4976180;28;20031;-87
2022/12/13 02:48:44;;;;;;;4.10;2.38;;;;;;;2.73;84.72;100357.66;4994008;28;20133;-87
2022/12/13 02:51:13;;;;;;;3.28;1.90;;;;;;;2.92;83.85;100367.69;5007398;28;20038;-88
2022/12/13 02:53:41;;;;;;;2.80;1.77;;;;;;;2.68;83.51;100350.03;4980543;28;20050;-86
2022/12/13 02:56:10;;;;;;;4.03;1.90;;;;;;;2.93;83.45;100372.06;4975012;28;20046;-89
2022/12/13 02:58:44;;;;;;;3.40;2.22;;;;;;;2.69;83.43;100324.31;4975510;28;20098;-88
2022/12/13 03:01:25;;;;;;;2.93;1.83;;;;;;;2.98;83.12;100351.28;4972227;28;20035;-88
2022/12/13 03:03:51;;;;;;;3.50;2.00;;;;;;;3.00;82.45;100335.22;5002709;28;20559;-88
2022/12/13 03:06:50;;;;;;;3.20;2.00;;;;;;;2.90;82.11;100319.16;4980513;28;20056;-87
2022/12/13 03:09:47;;;;;;;3.60;2.10;;;;;;;3.04;82.11;100334.84;4989261;28;20038;-86
2022/12/13 03:15:36;;;;;;;3.35;1.90;;;;;;;2.85;80.89;100297.44;4986929;28;20050;-88
2022/12/13 03:18:14;;;;;;;3.60;1.95;;;;;;;3.14;80.28;100329.69;4978287;28;20095;-87
2022/12/13 03:20:50;;;;;;;3.08;1.90;;;;;;;2.88;81.28;100339.66;4961742;28;20076;-87
2022/12/13 03:23:18;;;;;;;3.13;1.90;;;;;;;3.05;80.65;100362.28;4941021;28;20050;-86
2022/12/13 03:25:51;;;;;;;2.92;1.95;;;;;;;2.88;80.23;100351.16;4966914;28;20106;-87
2022/12/13 03:28:18;;;;;;;3.50;2.17;;;;;;;2.73;80.63;100363.78;4944016;28;20054;-87
2022/12/13 03:30:45;;;;;;;3.90;2.20;;;;;;;2.87;80.86;100402.56;4960463;28;20051;-86
2022/12/13 03:33:12;;;;;;;3.00;2.00;;;;;;;2.71;80.29;100360.41;4984279;28;20050;-86
2022/12/13 03:35:41;;;;;;;3.80;2.20;;;;;;;2.75;79.82;100355.72;4934007;28;20070;-85
2022/12/13 03:38:12;;;;;;;3.35;1.88;;;;;;;2.66;79.80;100345.81;4963981;28;20119;-86
2022/12/13 03:40:38;;;;;;;2.83;1.83;;;;;;;2.64;80.10;100359.19;4967254;28;20043;-86
2022/12/13 03:43:06;;;;;;;3.25;1.98;;;;;;;2.54;79.58;100342.28;4973132;28;20118;-85
2022/12/13 03:45:32;;;;;;;3.58;2.08;;;;;;;2.70;79.73;100369.34;4947087;28;20119;-86
2022/12/13 03:48:01;;;;;;;;;;;;;;;2.66;80.57;100362.56;4969072;28;20068;-86
2022/12/13 03:50:27;;;;;;;3.50;2.05;;;;;;;2.53;80.92;100351.22;4951484;28;19993;-86
2022/12/13 03:53:02;;;;;;;4.13;2.47;;;;;;;2.58;81.22;100378.25;4950279;28;20055;-88
2022/12/13 03:55:28;;;;;;;4.30;2.40;;;;;;;2.53;80.54;100383.06;4929667;28;20039;-88
2022/12/13 03:57:56;;;;;;;3.92;2.30;;;;;;;2.36;80.51;100389.63;4941182;28;20188;-86
2022/12/13 04:00:38;;;;;;;4.03;2.42;;;;;;;2.27;80.64;100367.31;4966768;28;20062;-86
2022/12/13 04:03:06;;;;;;;3.92;2.30;;;;;;;2.33;80.93;100393.34;4970956;28;20078;-86
2022/12/13 04:05:40;;;;;;;4.82;2.50;;;;;;;2.36;81.35;100391.44;4973559;28;20062;-86
2022/12/13 04:08:08;;;;;;;3.80;2.30;;;;;;;2.19;80.67;100396.19;4990321;28;20130;-87
2022/12/13 04:10:37;;;;;;;4.55;2.70;;;;;;;2.05;78.31;100404.31;4959242;28;20086;-87
2022/12/13 04:15:56;;;;;;;4.70;2.90;;;;;;;1.88;75.83;100419.66;4965853;28;20058;-86
2022/12/13 04:18:22;;;;;;;5.28;2.95;;;;;;;1.70;75.52;100420.97;4994376;28;20142;-87
2022/12/13 04:20:52;;;;;;;5.45;3.20;;;;;;;1.64;75.28;100432.03;4974399;28;20031;-86
2022/12/13 04:23:22;;;;;;;5.35;2.85;;;;;;;1.44;74.67;100428.97;4964693;28;20046;-87
2022/12/13 04:25:54;;;;;;;6.40;3.33;;;;;;;1.36;75.11;100433.97;4954517;28;20043;-88
2022/12/13 04:28:27;;;;;;;6.53;3.72;;;;;;;1.32;75.29;100431.66;4987620;28;20042;-87
2022/12/13 04:31:13;;;;;;;6.18;3.40;;;;;;;1.12;75.30;100420.63;4967951;28;20047;-87
2022/12/13 04:34:16;;;;;;;5.28;3.03;;;;;;;1.02;75.01;100432.81;4965839;28;20119;-88
2022/12/13 04:36:45;;;;;;;5.93;3.38;;;;;;;0.98;74.85;100433.97;4989083;28;20057;-86
2022/12/13 04:39:11;;;;;;;7.70;4.10;;;;;;;0.87;75.82;100424.13;4965263;28;20031;-85
2022/12/13 04:41:38;;;;;;;7.85;4.18;;;;;;;0.77;75.86;100407.16;4955815;28;20070;-85
2022/12/13 04:44:05;;;;;;;8.90;4.57;;;;;;;0.57;75.57;100382.91;4973661;28;20058;-88
2022/12/13 04:46:38;;;;;;;7.70;3.65;;;;;;;0.80;75.64;100394.56;4945759;28;20079;-88
2022/12/13 04:49:20;;;;;;;8.27;4.28;;;;;;;0.66;76.07;100402.59;4973867;28;20058;-89
2022/12/13 04:52:25;;;;;;;8.35;4.15;;;;;;;0.56;75.70;100391.81;4988015;28;20061;-86
2022/12/13 04:54:54;;;;;;;9.23;3.97;;;;;;;0.67;75.84;100408.75;4972705;28;20146;-88
2022/12/13 04:57:27;;;;;;;7.68;3.90;;;;;;;0.41;75.50;100376.94;4957201;28;20050;-87
2022/12/13 05:00:20;;;;;;;6.97;3.95;;;;;;;0.56;75.81;100407.69;4958249;28;20041;-87
2022/12/13 05:02:48;;;;;;;9.50;4.72;;;;;;;0.62;75.45;100407.25;4990081;28;20026;-85
2022/12/13 05:06:05;;;;;;;8.27;4.50;;;;;;;0.41;76.02;100398.09;4994686;28;20094;-88
2022/12/13 05:09:06;;;;;;;10.60;5.22;;;;;;;0.50;75.21;100408.06;4989405;28;20078;-86
2022/12/13 05:11:43;;;;;;;9.63;5.20;;;;;;;0.18;74.74;100387.25;4989553;28;20046;-87
2022/12/13 05:14:31;;;;;;;13.15;5.90;;;;;;;0.37;75.15;100425.69;4993741;28;20061;-88
2022/12/13 05:17:01;;;;;;;10.45;5.10;;;;;;;0.32;74.83;100425.16;4980209;28;20037;-88
2022/12/13 05:19:31;;;;;;;10.18;5.30;;;;;;;0.23;75.32;100425.75;5078122;23;20034;-87
2022/12/13 05:22:14;;;;;;;11.70;6.50;;;;;;;0.26;76.03;100425.56;5015488;28;20043;-89
2022/12/13 05:24:58;;;;;;;11.80;5.88;;;;;;;0.27;75.11;100432.56;4991628;28;20058;-86
2022/12/13 05:30:22;;;;;;;10.80;5.30;;;;;;;0.11;75.54;100417.69;931016;26;20310;-87
2022/12/13 05:32:51;;;;;;;10.73;5.10;;;;;;;0.06;75.13;100440.94;4986445;28;20098;-86
2022/12/13 05:35:25;;;;;;;11.55;5.82;;;;;;;0.03;74.64;100441.13;5008634;28;20100;-87
2022/12/13 05:37:53;;;;;;;10.43;5.53;;;;;;;0.06;75.10;100466.53;4997696;28;20042;-87
2022/12/13 05:40:19;;;;;;;10.52;5.18;;;;;;;0.06;74.85;100469.16;5012846;28;20080;-86
2022/12/13 05:42:45;;;;;;;10.75;5.30;;;;;;;0.06;75.04;100462.06;4992937;28;20065;-88
2022/12/13 05:45:13;;;;;;;10.48;5.25;;;;;;;-0.07;74.09;100469.09;5000873;28;20069;-87
2022/12/13 05:47:42;;;;;;;12.15;5.97;;;;;;;-0.03;74.15;100478.53;4980424;28;20053;-85
2022/12/13 05:50:12;;;;;;;11.85;6.80;;;;;;;-0.10;74.31;100456.91;5008450;28;20109;-88
2022/12/13 05:53:20;;;;;;;11.55;5.85;;;;;;;-0.02;74.29;100491.66;5018358;28;20109;-85
2022/12/13 05:56:09;;;;;;;11.07;6.07;;;;;;;-0.06;73.86;100490.13;5029492;28;20096;-88
2022/12/13 05:58:37;;;;;;;14.65;5.80;;;;;;;-0.02;73.90;100506.66;5030548;23;20086;-86
2022/12/13 06:01:24;;;;;;;13.13;6.47;;;;;;;-0.16;74.22;100475.81;5016745;28;20050;-87
2022/12/13 06:04:35;;;;;;;12.23;6.45;;;;;;;0.15;74.31;100514.38;4980271;28;20054;-87
2022/12/13 06:07:22;;;;;;;19.25;9.18;;;;;;;-0.30;74.22;100460.84;4991943;28;20062;-88
2022/12/13 06:09:55;;;;;;;14.73;7.38;;;;;;;0.00;74.21;100510.06;5007135;28;20106;-87
2022/12/13 06:12:47;;;;;;;11.88;6.25;;;;;;;-0.11;73.62;100484.31;4968815;29;20046;-89
2022/12/13 06:15:55;;;;;;;10.57;6.25;;;;;;;0.09;73.71;100517.38;4970777;28;20111;-88
2022/12/13 06:18:54;;;;;;;12.10;5.97;;;;;;;0.18;72.92;100535.31;4982312;28;20066;-87
2022/12/13 06:21:42;;;;;;;11.75;6.38;;;;;;;0.16;72.82;100534.59;4976150;28;20122;-89
2022/12/13 06:24:12;;;;;;;10.32;5.38;;;;;;;0.40;72.84;100539.25;4976141;28;20042;-87
2022/12/13 06:26:41;;;;;;;10.82;5.85;;;;;;;0.32;71.79;100523.84;4970424;28;20043;-86
2022/12/13 06:29:12;;;;;;;12.85;6.43;;;;;;;0.48;71.20;100563.41;4992939;28;20123;-86
2022/12/13 06:31:41;;;;;;;12.75;6.55;;;;;;;0.56;71.11;100561.13;4956856;28;20047;-87
2022/12/13 06:34:30;;;;;;;11.30;5.72;;;;;;;0.54;70.06;100560.38;4955820;28;20047;-87
2022/12/13 06:37:03;;;;;;;13.68;6.60;;;;;;;0.52;69.92;100543.75;4963225;28;20043;-88
2022/12/13 06:40:13;;;;;;;12.38;6.40;;;;;;;0.76;69.64;100574.84;4951370;29;20107;-88
2022/12/13 06:45:57;;;;;;;11.15;6.32;;;;;;;0.44;69.91;100559.25;5014022;28;20462;-88
2022/12/13 06:54:12;;;;;;;14.97;7.57;;;;;;;0.44;70.29;100567.19;4382178;22;20050;-91
2022/12/13 06:57:04;;;;;;;12.80;6.55;;;;;;;0.40;70.76;100597.44;5025751;28;20101;-89
2022/12/13 06:59:59;;;;;;;13.95;6.40;;;;;;;0.20;70.09;100574.88;5097382;22;20096;-88
2022/12/13 07:23:26;;;;;;;12.07;6.45;;;;;;;1.14;67.17;100603.25;4346941;22;9504269;-89
2022/12/13 07:26:01;;;;;;;13.23;6.63;;;;;;;1.10;67.29;100607.91;4989693;28;20049;-91
2022/12/13 07:28:57;;;;;;;13.07;6.35;;;;;;;0.98;67.53;100580.44;4943611;28;20063;-89
2022/12/13 07:31:48;;;;;;;12.50;6.40;;;;;;;1.09;66.71;100584.16;4968085;28;20063;-88
2022/12/13 07:34:55;;;;;;;17.13;5.97;;;;;;;1.43;65.67;100626.00;4960293;29;20044;-88
2022/12/13 07:38:20;;;;;;;13.50;6.07;;;;;;;1.10;65.95;100618.50;4940385;29;20048;-89
2022/12/13 07:41:00;;;;;;;13.77;5.75;;;;;;;1.33;65.31;100619.59;4914835;29;20052;-87
2022/12/13 08:01:35;;;;;;;12.90;5.72;;;;;;;1.63;61.81;100631.72;4613035;22;20042;-88
2022/12/13 08:04:10;;;;;;;13.95;6.13;;;;;;;1.76;61.09;100658.28;4982416;28;20132;-86
2022/12/13 08:06:56;;;;;;;15.57;5.78;;;;;;;1.46;60.26;100628.44;5016697;28;20040;-87
2022/12/13 10:29:15;;;;;;;9.90;4.72;;;;;;;11.41;29.87;100668.75;5008860;28;20478;-89
2022/12/13 10:32:36;;;;;;;14.60;5.75;;;;;;;11.63;30.04;100661.03;5011588;28;20070;-89
2022/12/13 10:35:19;;;;;;;16.08;5.60;;;;;;;13.11;27.25;100653.44;4994148;28;20026;-87
2022/12/13 10:37:48;;;;;;;8.43;5.10;;;;;;;13.34;26.46;100639.16;4996828;28;20125;-88
2022/12/13 10:40:31;;;;;;;10.85;4.95;;;;;;;14.51;25.19;100635.00;4980706;28;20047;-89
2022/12/13 10:43:17;;;;;;;9.25;4.70;;;;;;;15.20;24.43;100647.34;5012965;28;20046;-88
2022/12/13 10:49:22;;;;;;;9.52;5.13;;;;;;;16.33;22.84;100590.53;5013546;28;20065;-87
2022/12/13 10:55:33;;;;;;;10.15;5.43;;;;;;;16.01;22.95;100618.09;4975388;28;20049;-88
2022/12/13 10:58:08;;;;;;;8.38;5.65;;;;;;;15.61;23.50;100614.16;4961373;28;20031;-88
2022/12/13 11:00:52;;;;;;;16.00;6.10;;;;;;;16.46;23.13;100606.88;4936733;29;20137;-87
2022/12/13 11:06:43;;;;;;;8.63;5.90;;;;;;;17.60;21.80;100608.88;4974950;29;20094;-89
2022/12/13 11:09:52;;;;;;;12.30;5.95;;;;;;;17.59;21.32;100614.56;4958104;29;20047;-88
2022/12/13 11:12:50;;;;;;;7.82;4.90;;;;;;;15.59;22.56;100584.56;4983896;28;20049;-93
2022/12/13 11:15:44;;;;;;;10.63;5.72;;;;;;;14.45;23.60;100575.41;4959943;28;20107;-88
2022/12/13 11:18:36;;;;;;;8.32;5.07;;;;;;;13.13;25.13;100621.69;4979569;28;20043;-89
2022/12/13 11:21:08;;;;;;;7.65;5.03;;;;;;;12.99;24.89;100588.22;4993515;28;20053;-89
2022/12/13 11:24:04;;;;;;;9.20;5.38;;;;;;;12.76;25.87;100612.47;4953636;29;20043;-89
2022/12/13 11:26:52;;;;;;;9.45;5.40;;;;;;;11.55;27.58;100608.03;4992831;28;20060;-88
2022/12/13 11:29:51;;;;;;;8.05;5.25;;;;;;;12.22;26.92;100606.94;4996424;28;20143;-89
2022/12/13 11:33:06;;;;;;;7.78;4.65;;;;;;;12.40;26.48;100623.72;4993304;28;20207;-89
2022/12/13 11:36:10;;;;;;;8.97;4.90;;;;;;;12.57;26.08;100629.06;5035635;28;20074;-90
2022/12/13 11:38:59;;;;;;;13.32;5.25;;;;;;;13.44;25.25;100637.91;5030290;28;20034;-88
2022/12/13 11:41:44;;;;;;;7.95;4.97;;;;;;;12.70;26.30;100637.44;4985439;28;20026;-89
2022/12/13 11:44:12;;;;;;;10.30;5.25;;;;;;;13.31;25.53;100637.66;5034395;28;20049;-89
2022/12/13 11:46:58;;;;;;;11.13;5.38;;;;;;;13.73;25.44;100636.31;5036028;28;20042;-88
2022/12/13 11:49:42;;;;;;;8.95;5.13;;;;;;;13.77;24.94;100628.69;4963335;28;20046;-89
2022/12/13 11:52:46;;;;;;;11.30;5.25;;;;;;;13.17;25.61;100641.91;4979777;28;20078;-88
2022/12/13 11:55:39;;;;;;;7.43;4.97;;;;;;;12.33;26.75;100622.75;4996026;28;20097;-88
2022/12/13 11:58:50;;;;;;;8.82;5.55;;;;;;;11.94;27.33;100639.69;4983605;28;20041;-88
2022/12/13 12:01:52;;;;;;;9.10;4.88;;;;;;;10.96;27.70;100624.28;4998397;28;20042;-89
2022/12/13 12:05:11;;;;;;;9.13;4.93;;;;;;;9.52;29.22;100634.69;5015235;28;20093;-86
2022/12/13 12:08:41;;;;;;;9.07;4.90;;;;;;;9.76;29.79;100645.78;5026583;28;20141;-85
2022/12/13 12:41:09;;;;;;;9.10;4.65;;;;;;;7.86;33.08;100675.84;4844915;22;20055;-87
2022/12/13 12:44:04;;;;;;;8.45;4.88;;;;;;;7.93;33.24;100677.81;5015035;28;20081;-89
2022/12/13 12:47:13;;;;;;;10.30;5.75;;;;;;;7.94;32.72;100647.38;5014472;28;20062;-88
2022/12/13 12:50:18;;;;;;;10.82;5.00;;;;;;;8.25;33.10;100681.97;4977934;28;20046;-89
2022/12/13 17:49:45;;;;;;;44.92;19.80;;;;;;;0.25;63.30;101026.81;1264736;26;21074;-86
2022/12/13 17:52:16;;;;;;;45.10;20.17;;;;;;;0.22;63.51;101033.13;5011795;28;20064;-85
2022/12/13 18:02:41;;;;;;;56.63;24.63;;;;;;;0.10;62.81;101013.50;5342427;22;20060;-86
2022/12/13 18:22:29;;;;;;;35.60;16.55;;;;;;;0.24;62.11;101041.81;5003816;28;20050;-88
2022/12/13 18:25:05;;;;;;;37.85;16.33;;;;;;;0.28;62.24;101035.44;4996291;28;20085;-87
2022/12/13 18:27:34;;;;;;;32.50;14.50;;;;;;;0.20;62.31;101035.84;5011296;28;20038;-87
2022/12/13 18:35:14;;;;;;;37.22;17.52;;;;;;;0.27;61.08;101024.94;5012208;28;20088;-89
2022/12/13 18:37:43;;;;;;;31.02;14.68;;;;;;;0.18;61.11;101021.84;4980806;28;20123;-92
2022/12/13 18:40:15;;;;;;;24.83;12.25;;;;;;;0.11;60.44;101020.47;4976937;28;20090;-90
2022/12/13 18:42:43;;;;;;;33.42;15.88;;;;;;;0.10;59.72;101023.22;4982508;28;20038;-90
2022/12/13 18:45:27;;;;;;;22.63;10.85;;;;;;;0.04;59.51;101024.41;4992541;28;20444;-89
2022/12/13 18:48:23;;;;;;;27.38;12.95;;;;;;;-0.02;60.09;101012.38;4974002;28;20039;-89
2022/12/13 19:38:03;;;;;;;25.45;12.13;;;;;;;-0.07;60.65;101017.06;3322032;26;20058;-88
2022/12/13 19:41:32;;;;;;;30.03;12.53;;;;;;;-0.11;60.95;101009.41;5034995;28;20081;-89
2022/12/13 20:08:23;;;;;;;51.63;22.23;;;;;;;-0.11;64.32;101055.19;4648968;22;20058;-89
2022/12/13 20:20:16;;;;;;;30.38;14.90;;;;;;;-0.54;63.24;101014.34;5039654;22;20042;-91
2022/12/13 20:23:31;;;;;;;28.67;13.93;;;;;;;-0.40;62.75;101043.50;5003086;28;20038;-93
2022/12/13 23:06:09;;;;;;;30.38;14.65;;;;;;;-1.53;73.84;101019.31;5016255;28;20033;-91
